Charter Oak, California
Current Conditions -  °F | °C
As of 11:53 PM on Wednesday 28 Jan 2015 (Local Time) from KONT Reporting Station
Broken Clouds Broken Clouds  
Wind Chill: 59°   Ceiling: 15000
Heat Index: 59°   Visibility: 10mi
Dew Point: 46°   Wind: 3mph
Humidity: 62%   Direction: 350°N
Pressure: 30.07"   Gusts: NA
Location:  34.0808°N, 117.854°W
Report Text: KONT 290753Z 35003KT 10SM BKN150 15/08 A3007 RMK AO2 SLP175 FU SW T01500078 402390106
Loading
Personal Weather Stations






























Interactive Weather Map New forecast layout! Learn more

10-Day Weather Forecast

Advertisements
Track Severe Weather on mobile